createdAt,value
2023-11-25T00:00:59.986Z,3.14
2023-11-25T00:03:32.262Z,3.19
2023-11-25T00:06:01.967Z,3.31
2023-11-25T00:08:31.673Z,3.48
2023-11-25T00:11:01.893Z,3.17
2023-11-25T00:13:31.607Z,3.17
2023-11-25T00:16:04.906Z,3.45
2023-11-25T00:18:37.234Z,3.36
2023-11-25T00:21:07.071Z,3.23
2023-11-25T00:23:36.826Z,3.65
2023-11-25T00:26:06.973Z,3.14
2023-11-25T00:28:36.740Z,3.11
2023-11-25T00:31:07.385Z,3.78
2023-11-25T00:33:39.832Z,3.41
2023-11-25T00:36:09.700Z,2.97
2023-11-25T00:38:39.413Z,3.05
2023-11-25T00:41:09.785Z,3.27
2023-11-25T00:43:39.852Z,3.76
2023-11-25T00:46:09.790Z,3.34
2023-11-25T00:48:44.475Z,3.61
2023-11-25T00:51:14.217Z,2.95
2023-11-25T00:53:44.751Z,3.29
2023-11-25T00:56:14.630Z,3.70
2023-11-25T00:58:44.565Z,3.37
2023-11-25T01:01:14.389Z,3.36
2023-11-25T01:03:46.837Z,3.58
2023-11-25T01:06:16.980Z,4.07
2023-11-25T01:08:46.694Z,4.06
2023-11-25T01:11:16.369Z,4.23
2023-11-25T01:13:46.084Z,4.45
2023-11-25T01:16:20.235Z,4.11
2023-11-25T01:18:52.569Z,4.63
2023-11-25T01:21:22.296Z,4.07
2023-11-25T01:23:52.015Z,4.90
2023-11-25T01:26:21.791Z,4.50
2023-11-25T01:28:51.509Z,4.07
2023-11-25T01:31:21.288Z,4.92
2023-11-25T01:33:53.651Z,4.56
2023-11-25T01:36:23.326Z,4.82
2023-11-25T01:38:53.280Z,4.86
2023-11-25T01:41:22.958Z,4.67
2023-11-25T01:43:52.757Z,4.75
2023-11-25T01:46:34.175Z,4.60
2023-11-25T01:49:07.924Z,4.98
2023-11-25T01:51:40.694Z,5.20
2023-11-25T01:54:11.096Z,4.86
2023-11-25T01:56:41.353Z,4.60
2023-11-25T01:59:13.087Z,4.49
2023-11-25T02:01:45.378Z,4.70
2023-11-25T02:04:18.552Z,5.10
2023-11-25T02:06:48.354Z,4.79
2023-11-25T02:09:19.126Z,4.95
2023-11-25T02:11:58.917Z,6.02
2023-11-25T02:14:29.432Z,5.80
2023-11-25T02:17:01.616Z,6.06
2023-11-25T02:19:34.456Z,4.82
2023-11-25T02:22:07.946Z,5.22
2023-11-25T02:24:40.389Z,5.61
2023-11-25T02:27:11.244Z,5.36
2023-11-25T02:29:41.214Z,5.24
2023-11-25T02:32:11.135Z,5.11
2023-11-25T02:34:41.254Z,5.52
2023-11-25T02:37:11.018Z,5.37
2023-11-25T02:39:43.437Z,4.96
2023-11-25T02:42:14.820Z,5.12
2023-11-25T02:44:44.958Z,4.93
2023-11-25T02:47:14.981Z,5.49
2023-11-25T02:49:45.362Z,4.97
2023-11-25T02:52:15.263Z,5.16
2023-11-25T02:54:47.568Z,5.36
2023-11-25T02:57:20.450Z,5.07
2023-11-25T02:59:50.190Z,5.01
2023-11-25T03:02:20.015Z,4.85
2023-11-25T03:04:50.759Z,5.22
2023-11-25T03:07:20.825Z,4.95
2023-11-25T03:09:53.134Z,4.84
2023-11-25T03:12:23.921Z,5.12
2023-11-25T03:14:53.638Z,4.99
2023-11-25T03:17:23.470Z,5.05
2023-11-25T03:19:53.267Z,4.80
2023-11-25T03:22:23.395Z,5.10
2023-11-25T03:24:55.788Z,4.52
2023-11-25T03:27:25.489Z,5.10
2023-11-25T03:29:55.758Z,4.83
2023-11-25T03:32:26.841Z,5.02
2023-11-25T03:34:57.922Z,4.79
2023-11-25T03:37:29.172Z,4.47
2023-11-25T03:40:02.282Z,4.12
2023-11-25T03:42:32.015Z,4.41
2023-11-25T03:45:01.726Z,4.25
2023-11-25T03:47:31.656Z,4.26
2023-11-25T03:50:01.378Z,4.37
2023-11-25T03:52:31.899Z,4.31
2023-11-25T03:55:05.418Z,4.77
2023-11-25T03:57:35.536Z,4.43
2023-11-25T04:00:05.519Z,4.16
2023-11-25T04:02:41.287Z,4.04
2023-11-25T04:05:11.177Z,4.39
2023-11-25T04:07:41.557Z,3.97
2023-11-25T04:10:18.024Z,4.50
2023-11-25T04:12:48.700Z,4.59
2023-11-25T04:15:21.031Z,4.49
2023-11-25T04:17:52.747Z,4.73
2023-11-25T04:20:26.330Z,4.67
2023-11-25T04:22:59.361Z,4.54
2023-11-25T04:25:31.884Z,4.36
2023-11-25T04:28:01.991Z,4.90
2023-11-25T04:30:31.755Z,4.90
2023-11-25T04:33:01.480Z,5.06
2023-11-25T04:35:31.181Z,5.07
2023-11-25T04:38:01.005Z,4.99
2023-11-25T04:40:33.627Z,5.11
2023-11-25T04:43:03.466Z,5.25
2023-11-25T04:45:33.349Z,4.79
2023-11-25T04:48:03.152Z,5.17
2023-11-25T04:50:33.023Z,5.21
2023-11-25T04:53:02.789Z,5.40
2023-11-25T04:55:35.429Z,5.78
2023-11-25T04:58:05.213Z,5.91
2023-11-25T05:00:36.293Z,5.87
2023-11-25T05:03:06.516Z,5.67
2023-11-25T05:05:36.334Z,5.25
2023-11-25T05:08:06.777Z,5.37
2023-11-25T05:10:39.140Z,5.69
2023-11-25T05:13:08.888Z,5.26
2023-11-25T05:15:39.075Z,5.10
2023-11-25T05:18:08.798Z,5.82
2023-11-25T05:20:38.520Z,5.06
2023-11-25T05:23:09.042Z,5.61
2023-11-25T05:25:41.570Z,6.02
2023-11-25T05:28:11.358Z,6.01
2023-11-25T05:30:41.124Z,5.85
2023-11-25T05:33:10.825Z,5.37
2023-11-25T05:35:40.560Z,5.94
2023-11-25T05:38:10.406Z,5.74
2023-11-25T05:40:42.865Z,4.97
2023-11-25T05:43:13.258Z,5.57
2023-11-25T05:45:45.225Z,4.90
2023-11-25T05:48:15.039Z,5.44
2023-11-25T05:50:45.720Z,4.54
2023-11-25T05:53:15.509Z,4.75
2023-11-25T05:55:47.815Z,4.24
2023-11-25T05:58:17.553Z,4.61
2023-11-25T06:00:47.330Z,4.97
2023-11-25T06:03:17.170Z,4.39
2023-11-25T06:05:46.912Z,4.67
2023-11-25T06:08:17.095Z,5.11
2023-11-25T06:10:50.362Z,4.52
2023-11-25T06:13:21.284Z,5.15
2023-11-25T06:15:53.144Z,4.66
2023-11-25T06:18:23.007Z,4.29
2023-11-25T06:20:52.713Z,4.04
2023-11-25T06:23:22.509Z,3.77
2023-11-25T06:25:54.843Z,3.52
2023-11-25T06:28:25.576Z,4.25
2023-11-25T06:30:56.006Z,3.38
2023-11-25T06:33:26.464Z,3.55
2023-11-25T06:35:58.218Z,3.13
2023-11-25T06:38:28.006Z,3.39
2023-11-25T06:41:00.364Z,2.92
2023-11-25T06:43:30.615Z,2.83
2023-11-25T06:46:01.052Z,2.65
2023-11-25T06:48:33.488Z,2.34
2023-11-25T06:51:04.962Z,2.13
2023-11-25T06:53:34.680Z,2.48
2023-11-25T06:56:07.186Z,2.24
2023-11-25T06:58:36.888Z,2.27
2023-11-25T07:01:07.435Z,1.69
2023-11-25T07:03:37.364Z,2.02
2023-11-25T07:06:07.579Z,2.11
2023-11-25T07:08:37.268Z,2.30
2023-11-25T07:11:14.557Z,2.22
2023-11-25T07:13:44.955Z,2.05
2023-11-25T07:16:15.993Z,2.18
2023-11-25T07:18:47.163Z,2.38
2023-11-25T07:21:18.194Z,2.98
2023-11-25T07:23:48.049Z,2.46
2023-11-25T07:26:20.512Z,2.41
2023-11-25T07:28:50.259Z,2.57
2023-11-25T07:31:20.104Z,2.47
2023-11-25T07:33:51.589Z,2.86
2023-11-25T07:36:22.702Z,2.57
2023-11-25T07:38:52.479Z,2.57
2023-11-25T07:41:26.159Z,2.28
2023-11-25T07:43:56.324Z,2.52
2023-11-25T07:46:26.278Z,2.81
2023-11-25T07:48:56.006Z,3.29
2023-11-25T07:51:27.076Z,3.22
2023-11-25T07:53:57.631Z,3.46
2023-11-25T07:56:29.969Z,3.62
2023-11-25T07:59:02.830Z,3.34
2023-11-25T08:01:32.853Z,3.81
2023-11-25T08:04:03.101Z,3.49
2023-11-25T08:06:32.842Z,4.06
2023-11-25T08:09:00.221Z,4.54
2023-11-25T08:11:33.690Z,4.86
2023-11-25T08:14:03.359Z,3.98
2023-11-25T08:16:33.583Z,4.01
2023-11-25T08:19:03.314Z,3.09
2023-11-25T08:21:32.992Z,3.21
2023-11-25T08:24:02.713Z,3.14
2023-11-25T08:26:36.018Z,2.65
2023-11-25T08:29:06.520Z,2.54
2023-11-25T08:31:36.316Z,3.22
2023-11-25T08:34:10.392Z,3.06
2023-11-25T08:36:46.461Z,2.95
2023-11-25T08:39:17.113Z,2.57
2023-11-25T08:41:49.433Z,2.64
2023-11-25T08:44:19.118Z,2.62
2023-11-25T08:46:49.798Z,3.03
2023-11-25T08:49:21.312Z,3.57
2023-11-25T08:51:52.557Z,4.27
2023-11-25T08:54:23.623Z,3.55
2023-11-25T08:56:56.188Z,3.24
2023-11-25T08:59:26.420Z,2.89
2023-11-25T09:01:59.371Z,2.83
2023-11-25T09:04:33.754Z,2.79
2023-11-25T09:07:03.515Z,3.07
2023-11-25T09:09:33.270Z,2.68
2023-11-25T09:12:05.645Z,2.99
2023-11-25T09:14:35.345Z,3.10
2023-11-25T09:17:05.049Z,2.64
2023-11-25T09:19:34.768Z,2.60
2023-11-25T09:22:05.013Z,4.97
2023-11-25T09:24:34.708Z,2.28
2023-11-25T09:27:07.300Z,2.32
2023-11-25T09:29:37.860Z,2.87
2023-11-25T09:32:08.813Z,2.19
2023-11-25T09:34:38.832Z,1.99
2023-11-25T09:37:09.008Z,1.84
2023-11-25T09:39:38.971Z,1.43
2023-11-25T09:42:13.252Z,1.46
2023-11-25T09:44:43.858Z,1.55
2023-11-25T09:47:13.560Z,1.74
2023-11-25T09:49:43.352Z,1.90
2023-11-25T09:52:14.162Z,1.77
2023-11-25T09:54:45.878Z,2.12
2023-11-25T09:57:21.725Z,2.72
2023-11-25T09:59:51.712Z,2.40
2023-11-25T10:02:22.736Z,2.13
2023-11-25T10:04:53.121Z,3.16
2023-11-25T10:07:24.568Z,2.76
2023-11-25T10:09:54.565Z,2.64
2023-11-25T10:12:26.833Z,2.79
2023-11-25T10:15:00.477Z,3.34
2023-11-25T10:17:30.290Z,2.96
2023-11-25T10:20:11.570Z,3.49
2023-11-25T10:22:49.042Z,3.55
2023-11-25T10:25:20.641Z,3.37
2023-11-25T10:27:55.249Z,3.00
2023-11-25T10:30:26.490Z,2.62
2023-11-25T10:32:58.336Z,2.88
2023-11-25T10:35:28.500Z,2.98
2023-11-25T10:37:58.605Z,3.52
2023-11-25T10:40:28.897Z,3.31
2023-11-25T10:43:03.675Z,2.75
2023-11-25T10:45:35.033Z,3.07
2023-11-25T10:48:05.588Z,3.08
2023-11-25T10:50:35.489Z,2.89
2023-11-25T10:53:08.586Z,3.14
2023-11-25T10:55:39.703Z,3.26
2023-11-25T10:58:12.849Z,3.17
2023-11-25T11:00:42.735Z,3.31
2023-11-25T11:03:16.206Z,3.14
2023-11-25T11:05:49.726Z,3.08
2023-11-25T11:08:21.737Z,2.94
2023-11-25T11:10:55.110Z,2.94
2023-11-25T11:13:33.247Z,3.29
2023-11-25T11:16:07.506Z,3.03
2023-11-25T11:18:40.501Z,3.18
2023-11-25T11:21:10.914Z,3.02
2023-11-25T11:23:41.212Z,3.47
2023-11-25T11:26:19.858Z,3.05
2023-11-25T11:29:00.002Z,3.64
2023-11-25T11:31:58.523Z,3.77
2023-11-25T11:34:30.369Z,3.38
2023-11-25T11:37:00.095Z,3.84
2023-11-25T11:39:38.644Z,4.14
2023-11-25T11:42:23.453Z,3.66
2023-11-25T11:45:10.652Z,3.76
2023-11-25T11:47:41.430Z,3.62
2023-11-25T11:50:12.458Z,3.67
2023-11-25T11:52:52.102Z,3.82
2023-11-25T11:55:41.425Z,3.16
2023-11-25T11:58:12.582Z,3.08
2023-11-25T12:00:58.031Z,2.91
2023-11-25T12:03:27.828Z,3.09
2023-11-25T12:05:58.126Z,2.99
2023-11-25T12:08:28.642Z,3.32
2023-11-25T12:10:59.933Z,3.31
2023-11-25T12:13:30.326Z,3.45
2023-11-25T12:16:04.964Z,3.47
2023-11-25T12:18:36.168Z,3.73
2023-11-25T12:21:07.039Z,4.10
2023-11-25T12:23:45.235Z,3.68
2023-11-25T12:26:24.561Z,3.51
2023-11-25T12:28:54.463Z,4.34
2023-11-25T12:31:26.956Z,4.33
2023-11-25T12:33:57.217Z,3.53
2023-11-25T12:36:26.961Z,4.18
2023-11-25T12:38:56.779Z,3.88
2023-11-25T12:41:26.492Z,3.82
2023-11-25T12:44:11.924Z,3.99
2023-11-25T12:47:02.908Z,3.75
2023-11-25T12:49:33.457Z,4.17
2023-11-25T12:52:03.251Z,3.69
2023-11-25T12:54:46.703Z,3.77
2023-11-25T12:57:16.494Z,4.25
2023-11-25T12:59:47.393Z,4.45
2023-11-25T13:02:21.465Z,4.27
2023-11-25T13:04:52.206Z,4.39
2023-11-25T13:07:34.575Z,4.58
2023-11-25T13:10:05.591Z,4.30
2023-11-25T13:12:37.826Z,4.22
2023-11-25T13:15:08.016Z,4.01
2023-11-25T13:17:41.579Z,3.84
2023-11-25T13:20:12.726Z,4.01
2023-11-25T13:22:42.439Z,3.94
2023-11-25T13:25:12.379Z,4.97
2023-11-25T13:27:42.509Z,5.09
2023-11-25T13:30:12.841Z,4.65
2023-11-25T13:32:45.186Z,5.09
2023-11-25T13:35:14.978Z,4.59
2023-11-25T13:37:47.917Z,4.58
2023-11-25T13:40:20.974Z,4.59
2023-11-25T13:42:50.753Z,4.07
2023-11-25T13:45:20.554Z,4.03
2023-11-25T13:47:53.599Z,3.83
2023-11-25T13:50:23.382Z,3.91
2023-11-25T13:52:53.528Z,3.79
2023-11-25T13:55:23.703Z,3.77
2023-11-25T13:57:54.000Z,4.22
2023-11-25T14:00:26.871Z,4.03
2023-11-25T14:03:01.186Z,4.20
2023-11-25T14:05:32.367Z,3.81
2023-11-25T14:08:02.337Z,3.87
2023-11-25T14:10:32.646Z,4.04
2023-11-25T14:13:02.557Z,3.77
2023-11-25T14:15:32.285Z,4.06
2023-11-25T14:18:05.954Z,4.52
2023-11-25T14:20:36.066Z,4.59
2023-11-25T14:23:06.806Z,3.73
2023-11-25T14:25:36.725Z,2.90
2023-11-25T14:28:06.627Z,3.53
2023-11-25T14:30:36.436Z,3.47
2023-11-25T14:33:09.206Z,3.38
2023-11-25T14:35:39.112Z,3.84
2023-11-25T14:38:09.002Z,4.10
2023-11-25T14:40:40.451Z,4.17
2023-11-25T14:43:11.012Z,3.65
2023-11-25T14:45:40.857Z,3.29
2023-11-25T14:48:14.322Z,3.40
2023-11-25T14:50:44.532Z,3.73
2023-11-25T14:53:18.266Z,4.06
2023-11-25T14:55:50.085Z,3.85
2023-11-25T14:58:19.790Z,2.97
2023-11-25T15:00:49.481Z,2.70
2023-11-25T15:03:22.065Z,2.87
2023-11-25T15:05:51.910Z,2.49
2023-11-25T15:08:21.620Z,2.51
2023-11-25T15:10:51.782Z,3.68
2023-11-25T15:13:21.533Z,4.81
2023-11-25T15:15:52.628Z,3.08
2023-11-25T15:18:25.086Z,2.32
2023-11-25T15:20:54.898Z,2.88
2023-11-25T15:23:24.581Z,3.25
2023-11-25T15:25:54.267Z,2.95
2023-11-25T15:28:24.036Z,3.37
2023-11-25T15:30:53.739Z,3.86
2023-11-25T15:33:25.984Z,3.59
2023-11-25T15:35:55.648Z,3.10
2023-11-25T15:38:25.311Z,3.20
2023-11-25T15:40:55.076Z,3.45
2023-11-25T15:43:24.952Z,3.18
2023-11-25T15:45:54.720Z,3.77
2023-11-25T15:48:28.938Z,4.05
2023-11-25T15:50:58.852Z,4.29
2023-11-25T15:53:28.609Z,4.05
2023-11-25T15:55:58.254Z,3.96
2023-11-25T15:58:27.959Z,4.53
2023-11-25T16:00:57.825Z,4.74
2023-11-25T16:03:30.158Z,4.32
2023-11-25T16:05:59.911Z,4.47
2023-11-25T16:08:29.757Z,5.00
2023-11-25T16:10:59.531Z,4.46
2023-11-25T16:13:29.267Z,4.17
2023-11-25T16:15:58.943Z,4.42
2023-11-25T16:18:34.386Z,6.66
2023-11-25T16:21:04.488Z,3.22
2023-11-25T16:23:36.972Z,3.50
2023-11-25T16:26:09.494Z,4.23
2023-11-25T16:28:39.228Z,15.52
2023-11-25T16:31:10.822Z,3.22
2023-11-25T16:33:43.812Z,3.41
2023-11-25T16:36:13.726Z,3.58
2023-11-25T16:38:44.872Z,4.57
2023-11-25T16:41:14.750Z,13.45
2023-11-25T16:43:46.403Z,4.39
2023-11-25T16:46:16.380Z,3.23
2023-11-25T16:48:53.793Z,3.77
2023-11-25T16:51:28.470Z,3.82
2023-11-25T16:53:58.296Z,4.42
2023-11-25T16:56:28.053Z,5.53
2023-11-25T16:58:57.966Z,3.52
2023-11-25T17:01:27.927Z,3.79
2023-11-25T17:04:01.114Z,4.04
2023-11-25T17:06:31.264Z,5.28
2023-11-25T17:09:01.028Z,6.02
2023-11-25T17:11:30.837Z,4.48
2023-11-25T17:14:00.548Z,4.90
2023-11-25T17:16:31.607Z,5.02
2023-11-25T17:19:04.678Z,5.34
2023-11-25T17:21:34.411Z,5.76
2023-11-25T17:24:05.148Z,4.35
2023-11-25T17:26:35.007Z,9.10
2023-11-25T17:29:04.819Z,3.23
2023-11-25T17:31:35.008Z,3.35
2023-11-25T17:34:07.385Z,16.59
2023-11-25T17:36:37.094Z,3.37
2023-11-25T17:39:06.948Z,3.88
2023-11-25T17:41:36.629Z,4.47
2023-11-25T17:44:06.755Z,5.06
2023-11-25T17:46:37.850Z,5.05
2023-11-25T17:49:10.261Z,6.30
2023-11-25T17:51:40.416Z,7.06
2023-11-25T17:54:09.665Z,3.83
2023-11-25T17:56:39.379Z,3.87
2023-11-25T17:59:09.126Z,3.85
2023-11-25T18:01:38.951Z,4.08
2023-11-25T18:04:11.737Z,4.56
2023-11-25T18:06:41.788Z,16.05
2023-11-25T18:09:11.624Z,4.96
2023-11-25T18:11:41.540Z,6.39
2023-11-25T18:14:14.538Z,8.05
2023-11-25T18:16:46.443Z,4.46
2023-11-25T18:19:19.428Z,4.31
2023-11-25T18:21:49.756Z,4.41
2023-11-25T18:24:19.441Z,4.41
2023-11-25T18:26:49.225Z,15.82
2023-11-25T18:29:20.045Z,3.19
2023-11-25T18:31:49.852Z,3.37
2023-11-25T18:34:22.231Z,3.34
2023-11-25T18:36:51.976Z,4.00
2023-11-25T18:39:21.853Z,3.66
2023-11-25T18:41:51.588Z,4.38
2023-11-25T18:44:21.624Z,4.34
2023-11-25T18:46:51.405Z,7.19
2023-11-25T18:49:23.774Z,6.09
2023-11-25T18:51:53.509Z,7.16
2023-11-25T18:54:23.381Z,4.89
2023-11-25T18:56:53.138Z,3.91
2023-11-25T18:59:22.839Z,4.22
2023-11-25T19:01:53.168Z,5.26
2023-11-25T19:04:25.597Z,5.40
2023-11-25T19:06:55.320Z,4.74
2023-11-25T19:09:25.005Z,3.78
2023-11-25T19:11:55.114Z,3.20
2023-11-25T19:14:24.940Z,3.85
2023-11-25T19:16:54.771Z,3.72
2023-11-25T19:19:27.430Z,4.37
2023-11-25T19:21:57.122Z,3.66
2023-11-25T19:24:26.844Z,2.76
2023-11-25T19:26:56.578Z,2.66
2023-11-25T19:29:26.296Z,2.77
2023-11-25T19:31:56.103Z,2.82
2023-11-25T19:34:28.741Z,2.90
2023-11-25T19:36:58.390Z,3.65
2023-11-25T19:39:28.109Z,3.39
2023-11-25T19:41:57.936Z,3.10
2023-11-25T19:44:27.619Z,3.56
2023-11-25T19:46:58.675Z,3.62
2023-11-25T19:49:31.810Z,3.54
2023-11-25T19:52:01.615Z,2.86
2023-11-25T19:54:32.361Z,3.03
2023-11-25T19:57:02.078Z,2.94
2023-11-25T19:59:31.959Z,2.66
2023-11-25T20:02:01.910Z,3.37
2023-11-25T20:04:35.809Z,3.77
2023-11-25T20:07:05.543Z,3.75
2023-11-25T20:09:35.283Z,3.25
2023-11-25T20:12:05.807Z,3.29
2023-11-25T20:14:35.508Z,3.83
2023-11-25T20:17:05.729Z,7.79
2023-11-25T20:19:38.376Z,3.46
2023-11-25T20:22:09.807Z,3.22
2023-11-25T20:24:39.550Z,3.79
2023-11-25T20:27:09.303Z,3.26
2023-11-25T20:29:39.946Z,3.33
2023-11-25T20:32:10.527Z,10.51
2023-11-25T20:34:43.331Z,14.63
2023-11-25T20:37:12.988Z,6.27
2023-11-25T20:39:43.076Z,6.01
2023-11-25T20:42:12.770Z,5.74
2023-11-25T20:44:42.457Z,6.58
2023-11-25T20:47:12.470Z,11.24
2023-11-25T20:49:47.622Z,8.04
2023-11-25T20:52:17.637Z,6.59
2023-11-25T20:54:47.294Z,6.17
2023-11-25T20:57:17.011Z,6.70
2023-11-25T20:59:46.704Z,6.43
2023-11-25T21:02:17.065Z,4.47
2023-11-25T21:04:49.468Z,3.58
2023-11-25T21:07:19.209Z,4.27
2023-11-25T21:09:48.933Z,4.69
2023-11-25T21:12:18.652Z,4.98
2023-11-25T21:14:48.330Z,11.30
2023-11-25T21:17:18.062Z,8.48
2023-11-25T21:19:50.423Z,27.54
2023-11-25T21:22:21.603Z,23.56
2023-11-25T21:24:51.279Z,10.81
2023-11-25T21:27:20.950Z,5.21
2023-11-25T21:29:50.620Z,5.44
2023-11-25T21:32:20.327Z,4.97
2023-11-25T21:34:52.824Z,4.80
2023-11-25T21:37:22.578Z,5.53
2023-11-25T21:39:52.324Z,5.99
2023-11-25T21:42:22.024Z,6.61
2023-11-25T21:44:51.985Z,7.20
2023-11-25T21:47:21.746Z,7.95
2023-11-25T21:49:54.074Z,6.58
2023-11-25T21:52:25.027Z,6.15
2023-11-25T21:54:58.369Z,6.17
2023-11-25T21:57:28.231Z,6.27
2023-11-25T21:59:57.955Z,7.22
2023-11-25T22:02:28.640Z,8.16
2023-11-25T22:05:01.161Z,7.18
2023-11-25T22:07:30.853Z,10.52
2023-11-25T22:10:00.526Z,10.35
2023-11-25T22:12:30.278Z,8.03
2023-11-25T22:14:59.932Z,6.43
2023-11-25T22:17:29.674Z,5.90
2023-11-25T22:20:02.057Z,5.32
2023-11-25T22:22:32.367Z,9.59
2023-11-25T22:25:02.068Z,17.67
2023-11-25T22:27:33.656Z,8.60
2023-11-25T22:30:04.274Z,9.73
2023-11-25T22:32:34.043Z,8.89
2023-11-25T22:35:06.648Z,12.56
2023-11-25T22:37:37.857Z,23.40
2023-11-25T22:40:08.379Z,19.68
2023-11-25T22:42:38.477Z,11.82
2023-11-25T22:45:10.376Z,15.92
2023-11-25T22:47:40.308Z,13.33
2023-11-25T22:50:13.717Z,14.38
2023-11-25T22:52:43.370Z,12.52
2023-11-25T22:55:13.469Z,9.06
2023-11-25T22:57:43.131Z,7.34
2023-11-25T23:00:30.794Z,5.42
2023-11-25T23:03:00.569Z,5.36
2023-11-25T23:05:33.046Z,5.12
2023-11-25T23:08:02.683Z,4.91
2023-11-25T23:10:32.414Z,4.97
2023-11-25T23:13:02.382Z,4.71
2023-11-25T23:15:32.031Z,4.73
2023-11-25T23:18:02.631Z,5.05
2023-11-25T23:20:34.961Z,4.99
2023-11-25T23:23:04.885Z,5.54
2023-11-25T23:25:34.679Z,6.14
2023-11-25T23:28:04.674Z,6.31
2023-11-25T23:30:34.509Z,6.30
2023-11-25T23:33:04.688Z,5.66
2023-11-25T23:35:37.908Z,5.57
2023-11-25T23:38:08.445Z,6.16
2023-11-25T23:40:38.227Z,6.87
2023-11-25T23:43:07.888Z,6.86
2023-11-25T23:45:37.684Z,5.67
2023-11-25T23:48:07.827Z,5.98
2023-11-25T23:50:40.214Z,5.26
2023-11-25T23:53:13.021Z,5.24
2023-11-25T23:55:43.820Z,5.28
2023-11-25T23:58:14.498Z,5.68
